Mc Farland, California
Current Conditions -  °F | °C
As of 11:54 AM on Saturday 25 Oct 2014 (Local Time) from KBFL Reporting Station
Clear Clear  
Wind Chill: 73°   Ceiling: Unl
Heat Index: 73°   Visibility: 10mi
Dew Point: 47°   Wind: 8mph
Humidity: 39%   Direction: 320°NW
Pressure: 30.08"   Gusts: NA
Location:  35.638°N, 119.198°W
Report Text: KBFL 251854Z 32007KT 280V350 10SM CLR 23/08 A3008 RMK AO2 SLP179 T02280083
Loading
Personal Weather Stations






























Interactive Weather Map
Tropical Storm Tracking
New forecast layout! Learn more

10-Day Weather Forecast

Advertisements
Track Severe Weather on mobile